CHICAGO AURORA MUNICIPAL, IL, United States (KARR) 41-46N 088-28W 215M
Wind: from the SSE (160 degrees) at 7 MPH (6 KT):0
Visibility: 10 mile(s):0
Sky conditions: partly cloudy
Temperature: 71.1 F (21.7 C)
Dew Point: 64.0 F (17.8 C)
Relative Humidity: 78%
Pressure (altimeter): 30.02 in. Hg (1016 hPa)
ob: KARR 060352Z AUTO 16006KT 10SM SCT080 22/18 A3002 RMK AO2 SLP162 T02170178
Raw METAR:KARR 060352Z AUTO 16006KT 10SM SCT080 22/18 A3002 RMK AO2 SLP162 T02170178
cycle: 4
Back to top

CHICAGO/WEST CH DUPAGE, IL, United States (KDPA) 41-54N 88-15W 230M
Wind: from the S (180 degrees) at 8 MPH (7 KT):0
Visibility: 10 mile(s):0
Sky conditions: mostly clear
Temperature: 73.0 F (22.8 C)
Dew Point: 61.0 F (16.1 C)
Relative Humidity: 65%
Pressure (altimeter): 30.02 in. Hg (1016 hPa)
ob: KDPA 060352Z 18007KT 10SM FEW080 FEW120 23/16 A3002 RMK AO2 SLP161 T02280161
Raw METAR:KDPA 060352Z 18007KT 10SM FEW080 FEW120 23/16 A3002 RMK AO2 SLP161 T02280161
cycle: 4
Back to top

De Kalb, De Kalb Taylor Municipal Airport, IL, United States (KDKB) 41-55-55N 088-42-30W
Wind: from the S (170 degrees) at 7 MPH (6 KT):0
Visibility: 10 mile(s):0
Sky conditions: overcast
Temperature: 70.2 F (21.2 C)
Dew Point: 64.6 F (18.1 C)
Relative Humidity: 82%
Pressure (altimeter): 30.04 in. Hg (1017 hPa)
ob: KDKB 060355Z AUTO 17006KT 10SM OVC070 21/18 A3004 RMK AO2 T02120181
Raw METAR:KDKB 060355Z AUTO 17006KT 10SM OVC070 21/18 A3004 RMK AO2 T02120181
cycle: 4
Back to top

Joliet, Joliet Regional Airport, IL, United States (KJOT) 41-31-05N 088-10-31W
Wind: Calm:0
Visibility: 10 mile(s):0
Sky conditions: partly cloudy
Temperature: 72.9 F (22.7 C)
Dew Point: 62.6 F (17.0 C)
Relative Humidity: 70%
Pressure (altimeter): 30.04 in. Hg (1017 hPa)
ob: KJOT 060355Z AUTO 00000KT 10SM SCT085 23/17 A3004 RMK AO2 T02270170
Raw METAR:KJOT 060355Z AUTO 00000KT 10SM SCT085 23/17 A3004 RMK AO2 T02270170
cycle: 4
Back to top

Kankakee, Greater Kankakee Airport, IL, United States (KIKK) 41-04-17N 087-50-47W
Wind: from the SSW (200 degrees) at 6 MPH (5 KT):0
Visibility: 10 mile(s):0
Sky conditions: partly cloudy
Temperature: 71 F (22 C)
Dew Point: 60 F (16 C)
Relative Humidity: 68%
Pressure (altimeter): 30.07 in. Hg (1018 hPa)
ob: KIKK 060356Z AUTO 20005KT 10SM SCT120 22/16 A3007 RMK AO2
Raw METAR:KIKK 060356Z AUTO 20005KT 10SM SCT120 22/16 A3007 RMK AO2
cycle: 4
Back to top

Morris, Morris Municipal-James R Washburn Field Airport, IL, United States (KC09) 41-25-31N 088-25-07W
Wind: from the S (170 degrees) at 5 MPH (4 KT):0
Visibility: 10 mile(s):0
Sky conditions: mostly cloudy
Temperature: 69.8 F (21.0 C)
Dew Point: 67.1 F (19.5 C)
Relative Humidity: 91%
Pressure (altimeter): 30.03 in. Hg (1016 hPa)
ob: KC09 060355Z AUTO 17004KT 10SM BKN080 21/20 A3003 RMK AO2 T02100195
Raw METAR:KC09 060355Z AUTO 17004KT 10SM BKN080 21/20 A3003 RMK AO2 T02100195
cycle: 4
Back to top

Peru, Illinois Valley Regional-Walter A Duncan Field Airport, IL, United States (KVYS) 41-21-07N 089-09-11W
Wind: from the S (180 degrees) at 6 MPH (5 KT):0
Visibility: 10 mile(s):0
Sky conditions: partly cloudy
Temperature: 72.5 F (22.5 C)
Dew Point: 65.3 F (18.5 C)
Relative Humidity: 78%
Pressure (altimeter): 30.03 in. Hg (1016 hPa)
ob: KVYS 060355Z AUTO 18005KT 10SM SCT050 SCT120 23/19 A3003 RMK AO2 T02250185
Raw METAR:KVYS 060355Z AUTO 18005KT 10SM SCT050 SCT120 23/19 A3003 RMK AO2 T02250185
cycle: 4
Back to top

Rochelle, Rochelle Municipal-Koritz Field Airport, IL, United States (KRPJ) 41-53-35N 089-04-42W
Wind: Calm:0
Visibility: 10 mile(s):0
Sky conditions: overcast
Temperature: 73.4 F (23.0 C)
Dew Point: 69.8 F (21.0 C)
Relative Humidity: 88%
Pressure (altimeter): 30.03 in. Hg (1016 hPa)
ob: KRPJ 060355Z AUTO 00000KT 10SM OVC070 23/21 A3003 RMK AO2 T02300210
Raw METAR:KRPJ 060355Z AUTO 00000KT 10SM OVC070 23/21 A3003 RMK AO2 T02300210
cycle: 4
Back to top